Terminal Aerodrome Forecast
Issued by NWS Pocatello, ID

Home | Current Version | Previous Version | Text Only | Print | Product List | Glossary On
Versions: 1 2 3 4 5 6 7 8 9 10 11 12 13 14 15 16 17 18 19
000
FTUS45 KPIH 282326
TAFIDA
TAF
KIDA 282326Z 2900/2924 14010KT P6SM VCTS SCT080CB BKN120
     FM290200 19008KT P6SM SCT120
     FM291000 01009KT P6SM SCT060 BKN080
     FM291900 02008KT P6SM VCSH BKN080=

USA.gov is the U.S. government's official web portal to all federal, state and local government web resources and services.